createdAt,value
2019-04-25T00:02:40.823Z,9.66
2019-04-25T00:07:48.685Z,9.53
2019-04-25T00:12:54.101Z,9.54
2019-04-25T00:18:02.343Z,9.50
2019-04-25T00:23:13.893Z,9.40
2019-04-25T00:28:19.196Z,9.42
2019-04-25T00:33:24.738Z,9.44
2019-04-25T00:38:31.775Z,9.41
2019-04-25T00:43:39.550Z,9.25
2019-04-25T00:48:45.755Z,9.24
2019-04-25T00:53:54.703Z,9.31
2019-04-25T00:59:22.101Z,9.27
2019-04-25T01:04:31.597Z,9.06
2019-04-25T01:09:37.641Z,9.03
2019-04-25T01:14:45.697Z,9.04
2019-04-25T01:19:54.728Z,9.03
2019-04-25T01:24:59.484Z,8.98
2019-04-25T01:30:06.130Z,9.02
2019-04-25T01:35:19.667Z,8.95
2019-04-25T01:40:35.735Z,8.87
2019-04-25T01:45:41.761Z,8.88
2019-04-25T01:50:48.255Z,8.92
2019-04-25T01:56:01.632Z,8.89
2019-04-25T02:01:02.653Z,8.86
2019-04-25T02:06:09.467Z,8.92
2019-04-25T02:11:34.044Z,8.91
2019-04-25T02:16:39.520Z,8.85
2019-04-25T02:21:45.256Z,8.86
2019-04-25T02:26:50.603Z,8.87
2019-04-25T02:31:59.140Z,8.80
2019-04-25T02:37:08.664Z,8.77
2019-04-25T02:42:10.639Z,8.82
2019-04-25T02:47:55.291Z,8.76
2019-04-25T02:53:11.614Z,8.76
2019-04-25T02:58:17.665Z,8.67
2019-04-25T03:03:24.546Z,8.63
2019-04-25T03:08:30.702Z,8.57
2019-04-25T03:13:36.496Z,8.55
2019-04-25T03:19:00.705Z,8.58
2019-04-25T03:24:10.236Z,8.58
2019-04-25T03:29:13.793Z,8.49
2019-04-25T03:34:20.980Z,8.52
2019-04-25T03:39:27.096Z,8.50
2019-04-25T03:44:33.745Z,8.47
2019-04-25T03:49:39.209Z,8.53
2019-04-25T03:54:45.521Z,8.44
2019-04-25T03:59:51.567Z,8.36
2019-04-25T04:04:56.874Z,8.37
2019-04-25T04:10:04.517Z,8.26
2019-04-25T04:15:10.419Z,8.27
2019-04-25T04:20:40.834Z,8.33
2019-04-25T04:25:46.583Z,8.26
2019-04-25T04:30:51.795Z,8.24
2019-04-25T04:35:57.107Z,8.24
2019-04-25T04:41:03.929Z,8.26
2019-04-25T04:46:10.195Z,8.28
2019-04-25T04:51:16.050Z,8.32
2019-04-25T04:56:25.464Z,8.36
2019-04-25T05:01:33.720Z,8.43
2019-04-25T05:06:56.549Z,8.47
2019-04-25T05:12:01.806Z,8.69
2019-04-25T05:17:07.439Z,8.89
2019-04-25T05:22:14.550Z,9.11
2019-04-25T05:27:32.230Z,9.30
2019-04-25T05:32:27.045Z,9.49
2019-04-25T05:37:33.513Z,9.62
2019-04-25T05:43:10.104Z,9.95
2019-04-25T05:48:16.279Z,10.37
2019-04-25T05:53:26.306Z,10.96
2019-04-25T05:58:33.621Z,11.09
2019-04-25T06:03:39.928Z,11.20
2019-04-25T06:08:54.468Z,11.56
2019-04-25T06:14:03.483Z,11.38
2019-04-25T06:19:20.023Z,11.13
2019-04-25T06:24:32.757Z,11.01
2019-04-25T06:29:38.563Z,11.21
2019-04-25T06:34:44.470Z,11.30
2019-04-25T06:39:50.041Z,11.99
2019-04-25T06:50:18.900Z,12.92
2019-04-25T06:55:25.984Z,13.40
2019-04-25T07:00:35.219Z,13.50
2019-04-25T07:05:40.573Z,13.40
2019-04-25T07:10:46.850Z,13.42
2019-04-25T07:15:53.424Z,13.93
2019-04-25T07:20:59.934Z,14.20
2019-04-25T07:26:15.305Z,14.73
2019-04-25T07:31:44.219Z,14.74
2019-04-25T07:36:49.599Z,15.18
2019-04-25T07:41:55.830Z,15.52
2019-04-25T07:47:01.058Z,15.78
2019-04-25T07:52:06.809Z,15.76
2019-04-25T07:57:13.565Z,15.87
2019-04-25T08:02:19.579Z,15.93
2019-04-25T08:07:24.867Z,15.81
2019-04-25T08:12:30.539Z,16.05
2019-04-25T08:17:54.080Z,16.34
2019-04-25T08:23:01.721Z,16.42
2019-04-25T08:28:07.377Z,16.82
2019-04-25T08:45:55.752Z,17.03
2019-04-25T08:51:08.318Z,16.47
2019-04-25T09:02:43.565Z,16.19
2019-04-25T09:07:48.810Z,16.01
2019-04-25T09:25:27.353Z,16.14
2019-04-25T09:30:34.926Z,16.47
2019-04-25T09:35:40.472Z,16.58
2019-04-25T09:40:46.687Z,16.44
2019-04-25T09:46:07.113Z,16.56
2019-04-25T09:51:23.125Z,16.61
2019-04-25T09:56:33.988Z,17.03
2019-04-25T10:01:40.182Z,17.00
2019-04-25T10:06:47.538Z,16.95
2019-04-25T10:11:54.676Z,17.21
2019-04-25T10:17:00.137Z,17.53
2019-04-25T10:22:05.584Z,17.84
2019-04-25T10:27:13.885Z,17.70
2019-04-25T10:32:19.188Z,18.21
2019-04-25T10:37:24.543Z,19.07
2019-04-25T10:42:30.285Z,19.39
2019-04-25T10:47:35.522Z,19.24
2019-04-25T10:52:41.841Z,19.17
2019-04-25T10:57:48.365Z,19.19
2019-04-25T11:02:56.690Z,19.73
2019-04-25T11:08:02.188Z,20.20
2019-04-25T11:13:07.650Z,20.18
2019-04-25T11:18:13.107Z,20.68
2019-04-25T11:23:20.394Z,21.18
2019-04-25T11:28:26.759Z,21.54
2019-04-25T11:33:33.477Z,21.59
2019-04-25T11:38:54.661Z,22.00
2019-04-25T11:44:00.479Z,21.85
2019-04-25T11:49:06.770Z,22.53
2019-04-25T11:54:13.930Z,22.79
2019-04-25T11:59:19.320Z,22.66
2019-04-25T12:04:26.182Z,24.18
2019-04-25T12:09:31.454Z,25.13
2019-04-25T12:14:36.800Z,25.94
2019-04-25T12:19:42.068Z,26.29
2019-04-25T12:24:47.928Z,25.52
2019-04-25T12:29:53.167Z,24.97
2019-04-25T12:34:59.431Z,25.93
2019-04-25T12:40:06.360Z,24.67
2019-04-25T12:45:21.567Z,25.26
2019-04-25T12:50:26.779Z,27.75
2019-04-25T12:55:32.006Z,27.25
2019-04-25T13:00:47.537Z,27.74
2019-04-25T13:05:44.866Z,29.02
2019-04-25T13:10:52.170Z,29.61
2019-04-25T13:15:57.852Z,30.48
2019-04-25T13:21:03.536Z,31.37
2019-04-25T13:26:09.747Z,31.10
2019-04-25T13:31:37.941Z,30.53
2019-04-25T13:36:44.291Z,27.95
2019-04-25T13:41:49.789Z,29.01
2019-04-25T13:46:55.463Z,30.77
2019-04-25T13:52:00.811Z,30.88
2019-04-25T13:57:06.287Z,31.62
2019-04-25T14:02:12.020Z,29.60
2019-04-25T14:07:17.426Z,29.69
2019-04-25T14:12:26.363Z,30.21
2019-04-25T14:17:55.094Z,32.56
2019-04-25T14:23:03.482Z,30.91
2019-04-25T14:28:10.530Z,31.58
2019-04-25T14:33:15.934Z,31.08
2019-04-25T14:38:22.695Z,30.34
2019-04-25T14:43:28.802Z,28.01
2019-04-25T14:48:34.094Z,27.74
2019-04-25T14:53:39.436Z,26.62
2019-04-25T14:58:46.505Z,25.92
2019-04-25T15:03:51.829Z,25.60
2019-04-25T15:08:57.062Z,25.27
2019-04-25T15:14:02.357Z,24.88
2019-04-25T15:19:07.753Z,25.13
2019-04-25T15:24:13.709Z,24.89
2019-04-25T15:29:19.511Z,24.86
2019-04-25T15:34:27.669Z,24.68
2019-04-25T15:39:55.690Z,24.52
2019-04-25T15:45:19.981Z,24.37
2019-04-25T15:50:27.781Z,24.19
2019-04-25T15:55:34.887Z,24.06
2019-04-25T16:00:40.470Z,23.84
2019-04-25T16:05:45.806Z,24.01
2019-04-25T16:10:51.857Z,24.19
2019-04-25T16:15:57.077Z,24.26
2019-04-25T16:21:02.827Z,24.26
2019-04-25T16:26:09.232Z,23.79
2019-04-25T16:31:17.825Z,23.46
2019-04-25T16:36:23.643Z,23.56
2019-04-25T16:41:29.207Z,23.33
2019-04-25T16:46:34.702Z,23.10
2019-04-25T16:51:40.544Z,22.88
2019-04-25T16:56:45.952Z,22.36
2019-04-25T17:01:51.993Z,21.86
2019-04-25T17:06:57.314Z,21.83
2019-04-25T17:12:05.340Z,21.46
2019-04-25T17:17:41.899Z,21.39
2019-04-25T17:22:48.037Z,21.06
2019-04-25T17:27:53.326Z,20.65
2019-04-25T17:33:14.407Z,19.77
2019-04-25T17:38:38.449Z,19.33
2019-04-25T17:43:44.621Z,18.86
2019-04-25T17:48:49.914Z,18.49
2019-04-25T17:53:55.229Z,18.26
2019-04-25T17:59:01.021Z,18.10
2019-04-25T18:04:08.031Z,17.72
2019-04-25T18:09:14.358Z,17.29
2019-04-25T18:14:20.323Z,17.03
2019-04-25T18:19:36.448Z,16.85
2019-04-25T18:25:03.730Z,16.82
2019-04-25T18:30:09.737Z,16.56
2019-04-25T18:35:23.104Z,16.47
2019-04-25T18:40:46.382Z,16.36
2019-04-25T18:45:56.240Z,16.18
2019-04-25T18:51:03.094Z,16.04
2019-04-25T18:56:15.886Z,15.88
2019-04-25T19:01:46.256Z,15.81
2019-04-25T19:06:58.119Z,15.63
2019-04-25T19:12:01.027Z,15.47
2019-04-25T19:17:08.128Z,15.35
2019-04-25T19:22:13.859Z,15.30
2019-04-25T19:27:24.170Z,15.21
2019-04-25T19:32:33.690Z,15.07
2019-04-25T19:37:40.548Z,15.03
2019-04-25T19:42:49.689Z,14.97
2019-04-25T19:47:55.164Z,14.91
2019-04-25T19:53:00.922Z,14.75
2019-04-25T19:58:06.273Z,14.68
2019-04-25T20:03:16.558Z,14.69
2019-04-25T20:08:36.628Z,14.51
2019-04-25T20:13:42.821Z,14.59
2019-04-25T20:18:49.786Z,14.57
2019-04-25T20:23:55.230Z,14.52
2019-04-25T20:29:00.677Z,14.49
2019-04-25T20:34:06.390Z,14.49
2019-04-25T20:39:12.085Z,14.39
2019-04-25T20:44:17.509Z,14.39
2019-04-25T20:49:22.974Z,14.29
2019-04-25T20:54:28.734Z,14.18
2019-04-25T20:59:34.029Z,14.18
2019-04-25T21:04:39.376Z,14.16
2019-04-25T21:09:46.526Z,14.03
2019-04-25T21:15:10.139Z,14.06
2019-04-25T21:20:16.116Z,14.16
2019-04-25T21:25:22.086Z,14.06
2019-04-25T21:30:27.513Z,14.05
2019-04-25T21:35:32.881Z,13.94
2019-04-25T21:41:07.860Z,13.88
2019-04-25T21:46:13.713Z,13.86
2019-04-25T21:51:32.708Z,13.85
2019-04-25T21:56:38.492Z,13.88
2019-04-25T22:01:44.795Z,13.85
2019-04-25T22:06:50.592Z,13.76
2019-04-25T22:11:57.324Z,13.69
2019-04-25T22:17:04.336Z,13.41
2019-04-25T22:22:10.074Z,13.46
2019-04-25T22:27:21.448Z,13.39
2019-04-25T22:32:49.673Z,13.33
2019-04-25T22:37:54.949Z,13.22
2019-04-25T22:43:01.656Z,13.14
2019-04-25T22:48:08.696Z,13.06
2019-04-25T22:53:21.839Z,13.03
2019-04-25T22:58:23.383Z,12.92
2019-04-25T23:03:37.285Z,12.92
2019-04-25T23:08:42.652Z,12.84
2019-04-25T23:13:48.450Z,12.77
2019-04-25T23:18:55.442Z,12.65
2019-04-25T23:24:00.751Z,12.57
2019-04-25T23:29:08.065Z,12.46
2019-04-25T23:34:13.779Z,12.29
2019-04-25T23:39:19.526Z,12.21
2019-04-25T23:44:24.997Z,12.27
2019-04-25T23:49:32.959Z,12.25
2019-04-25T23:54:38.765Z,12.07
2019-04-25T23:59:44.449Z,11.93
